sensor_id;sensor_type;location;lat;lon;timestamp;temperature;humidity
5870;DHT22;2961;47.702;9.410;2024-03-23T00:54:09;6.30;99.90
5870;DHT22;2961;47.702;9.410;2024-03-23T00:56:35;6.20;99.90
5870;DHT22;2961;47.702;9.410;2024-03-23T00:59:02;6.00;99.90
5870;DHT22;2961;47.702;9.410;2024-03-23T01:01:27;5.90;99.90
5870;DHT22;2961;47.702;9.410;2024-03-23T01:03:54;5.90;99.90
5870;DHT22;2961;47.702;9.410;2024-03-23T01:06:20;5.80;99.90
5870;DHT22;2961;47.702;9.410;2024-03-23T01:08:47;5.70;99.90
5870;DHT22;2961;47.702;9.410;2024-03-23T01:11:14;5.70;99.90
5870;DHT22;2961;47.702;9.410;2024-03-23T01:13:41;5.60;99.90
5870;DHT22;2961;47.702;9.410;2024-03-23T01:16:07;5.50;99.90
5870;DHT22;2961;47.702;9.410;2024-03-23T01:18:33;5.40;99.90
5870;DHT22;2961;47.702;9.410;2024-03-23T01:20:59;5.30;99.90
5870;DHT22;2961;47.702;9.410;2024-03-23T01:23:26;5.30;99.90
5870;DHT22;2961;47.702;9.410;2024-03-23T01:25:52;5.20;99.90
5870;DHT22;2961;47.702;9.410;2024-03-23T01:28:21;5.10;99.90
5870;DHT22;2961;47.702;9.410;2024-03-23T01:30:47;5.10;99.90
5870;DHT22;2961;47.702;9.410;2024-03-23T01:33:14;5.10;99.90
5870;DHT22;2961;47.702;9.410;2024-03-23T01:35:40;5.10;99.90
5870;DHT22;2961;47.702;9.410;2024-03-23T01:38:07;5.00;99.90
5870;DHT22;2961;47.702;9.410;2024-03-23T01:40:33;5.10;99.90
5870;DHT22;2961;47.702;9.410;2024-03-23T01:43:04;5.20;99.90
5870;DHT22;2961;47.702;9.410;2024-03-23T01:45:32;5.40;99.90
5870;DHT22;2961;47.702;9.410;2024-03-23T01:47:59;5.40;99.90
5870;DHT22;2961;47.702;9.410;2024-03-23T01:50:25;5.40;99.90
5870;DHT22;2961;47.702;9.410;2024-03-23T01:52:52;5.40;99.90
5870;DHT22;2961;47.702;9.410;2024-03-23T01:55:19;5.50;99.90
5870;DHT22;2961;47.702;9.410;2024-03-23T01:57:45;5.60;99.90
5870;DHT22;2961;47.702;9.410;2024-03-23T02:00:12;5.70;99.90
5870;DHT22;2961;47.702;9.410;2024-03-23T02:02:43;5.60;99.90
5870;DHT22;2961;47.702;9.410;2024-03-23T02:05:10;5.70;99.90
5870;DHT22;2961;47.702;9.410;2024-03-23T02:07:37;5.70;99.90
5870;DHT22;2961;47.702;9.410;2024-03-23T02:10:04;5.70;99.90
5870;DHT22;2961;47.702;9.410;2024-03-23T02:12:31;5.60;99.90
5870;DHT22;2961;47.702;9.410;2024-03-23T02:14:57;5.60;99.90
5870;DHT22;2961;47.702;9.410;2024-03-23T02:17:24;5.60;99.90
5870;DHT22;2961;47.702;9.410;2024-03-23T02:19:52;5.60;99.90
5870;DHT22;2961;47.702;9.410;2024-03-23T02:22:18;5.60;99.90
5870;DHT22;2961;47.702;9.410;2024-03-23T02:24:45;5.80;99.90
5870;DHT22;2961;47.702;9.410;2024-03-23T02:27:12;5.80;99.90
5870;DHT22;2961;47.702;9.410;2024-03-23T02:29:38;5.90;99.90
5870;DHT22;2961;47.702;9.410;2024-03-23T02:32:05;5.90;99.90
5870;DHT22;2961;47.702;9.410;2024-03-23T02:34:31;5.80;99.90
5870;DHT22;2961;47.702;9.410;2024-03-23T02:36:58;5.70;99.90
5870;DHT22;2961;47.702;9.410;2024-03-23T02:39:24;5.60;99.90
5870;DHT22;2961;47.702;9.410;2024-03-23T02:41:52;5.60;99.90
5870;DHT22;2961;47.702;9.410;2024-03-23T02:44:18;5.50;99.90
5870;DHT22;2961;47.702;9.410;2024-03-23T02:46:45;5.50;99.90
5870;DHT22;2961;47.702;9.410;2024-03-23T02:49:10;5.50;99.90
5870;DHT22;2961;47.702;9.410;2024-03-23T02:51:37;5.60;99.90
5870;DHT22;2961;47.702;9.410;2024-03-23T02:54:03;5.60;99.90
5870;DHT22;2961;47.702;9.410;2024-03-23T02:56:32;5.80;99.90
5870;DHT22;2961;47.702;9.410;2024-03-23T02:58:59;6.00;99.90
5870;DHT22;2961;47.702;9.410;2024-03-23T03:01:26;6.10;99.90
5870;DHT22;2961;47.702;9.410;2024-03-23T03:03:52;6.10;99.90
5870;DHT22;2961;47.702;9.410;2024-03-23T03:06:25;6.10;99.90
5870;DHT22;2961;47.702;9.410;2024-03-23T03:08:51;6.20;99.90
5870;DHT22;2961;47.702;9.410;2024-03-23T03:11:18;6.30;99.90
5870;DHT22;2961;47.702;9.410;2024-03-23T03:13:44;6.30;99.90
5870;DHT22;2961;47.702;9.410;2024-03-23T03:16:12;6.20;99.90
5870;DHT22;2961;47.702;9.410;2024-03-23T03:18:38;6.20;99.90
5870;DHT22;2961;47.702;9.410;2024-03-23T03:21:05;6.30;99.90
5870;DHT22;2961;47.702;9.410;2024-03-23T03:23:36;6.30;99.90
5870;DHT22;2961;47.702;9.410;2024-03-23T03:26:03;6.30;99.90
5870;DHT22;2961;47.702;9.410;2024-03-23T03:28:29;6.40;99.90
5870;DHT22;2961;47.702;9.410;2024-03-23T03:30:56;6.40;99.90
5870;DHT22;2961;47.702;9.410;2024-03-23T03:33:23;6.40;99.90
5870;DHT22;2961;47.702;9.410;2024-03-23T03:35:50;6.50;99.90
5870;DHT22;2961;47.702;9.410;2024-03-23T03:38:18;6.60;99.90
5870;DHT22;2961;47.702;9.410;2024-03-23T03:40:45;6.80;99.90
5870;DHT22;2961;47.702;9.410;2024-03-23T03:43:10;6.70;99.90
5870;DHT22;2961;47.702;9.410;2024-03-23T03:45:37;6.80;99.90
5870;DHT22;2961;47.702;9.410;2024-03-23T03:48:04;6.80;99.90
5870;DHT22;2961;47.702;9.410;2024-03-23T03:50:32;6.80;99.90
5870;DHT22;2961;47.702;9.410;2024-03-23T03:52:58;6.80;99.90
5870;DHT22;2961;47.702;9.410;2024-03-23T03:55:25;6.80;99.90
5870;DHT22;2961;47.702;9.410;2024-03-23T03:57:50;6.90;99.90
5870;DHT22;2961;47.702;9.410;2024-03-23T04:00:18;6.90;99.90
5870;DHT22;2961;47.702;9.410;2024-03-23T04:02:43;7.00;99.90
5870;DHT22;2961;47.702;9.410;2024-03-23T04:05:11;7.00;99.90
5870;DHT22;2961;47.702;9.410;2024-03-23T04:07:38;7.00;99.90
5870;DHT22;2961;47.702;9.410;2024-03-23T04:10:06;6.90;99.90
5870;DHT22;2961;47.702;9.410;2024-03-23T04:12:33;6.80;99.90
5870;DHT22;2961;47.702;9.410;2024-03-23T04:15:00;6.70;99.90
5870;DHT22;2961;47.702;9.410;2024-03-23T04:17:26;6.70;99.90
5870;DHT22;2961;47.702;9.410;2024-03-23T04:19:57;6.60;99.90
5870;DHT22;2961;47.702;9.410;2024-03-23T04:22:23;6.40;99.90
5870;DHT22;2961;47.702;9.410;2024-03-23T04:24:52;6.20;99.90
5870;DHT22;2961;47.702;9.410;2024-03-23T04:27:18;6.20;99.90
5870;DHT22;2961;47.702;9.410;2024-03-23T04:29:47;6.20;99.90
5870;DHT22;2961;47.702;9.410;2024-03-23T04:32:13;6.30;99.90
5870;DHT22;2961;47.702;9.410;2024-03-23T04:34:40;6.30;99.90
5870;DHT22;2961;47.702;9.410;2024-03-23T04:37:06;6.20;99.90
5870;DHT22;2961;47.702;9.410;2024-03-23T04:39:34;6.20;99.90
5870;DHT22;2961;47.702;9.410;2024-03-23T04:42:02;6.20;99.90
5870;DHT22;2961;47.702;9.410;2024-03-23T04:44:29;6.10;99.90
5870;DHT22;2961;47.702;9.410;2024-03-23T04:46:56;6.10;99.90
5870;DHT22;2961;47.702;9.410;2024-03-23T04:49:23;6.10;99.90
5870;DHT22;2961;47.702;9.410;2024-03-23T04:51:49;6.20;99.90
5870;DHT22;2961;47.702;9.410;2024-03-23T04:54:16;6.10;99.90
5870;DHT22;2961;47.702;9.410;2024-03-23T04:56:43;6.30;99.90
5870;DHT22;2961;47.702;9.410;2024-03-23T04:59:11;6.30;99.90
5870;DHT22;2961;47.702;9.410;2024-03-23T05:01:37;6.30;99.90
5870;DHT22;2961;47.702;9.410;2024-03-23T05:04:07;6.30;99.90
5870;DHT22;2961;47.702;9.410;2024-03-23T05:06:33;6.20;99.90
5870;DHT22;2961;47.702;9.410;2024-03-23T05:09:00;6.20;99.90
5870;DHT22;2961;47.702;9.410;2024-03-23T05:11:27;6.20;99.90
5870;DHT22;2961;47.702;9.410;2024-03-23T05:13:54;6.00;99.90
5870;DHT22;2961;47.702;9.410;2024-03-23T05:16:21;5.90;99.90
5870;DHT22;2961;47.702;9.410;2024-03-23T05:18:48;5.90;99.90
5870;DHT22;2961;47.702;9.410;2024-03-23T05:21:14;5.90;99.90
5870;DHT22;2961;47.702;9.410;2024-03-23T05:23:40;5.90;99.90
5870;DHT22;2961;47.702;9.410;2024-03-23T05:26:08;5.90;99.90
5870;DHT22;2961;47.702;9.410;2024-03-23T05:28:36;6.00;99.90
5870;DHT22;2961;47.702;9.410;2024-03-23T05:31:02;6.10;99.90
5870;DHT22;2961;47.702;9.410;2024-03-23T05:33:30;6.20;99.90
5870;DHT22;2961;47.702;9.410;2024-03-23T05:35:56;6.30;99.90
5870;DHT22;2961;47.702;9.410;2024-03-23T05:38:24;6.40;99.90
5870;DHT22;2961;47.702;9.410;2024-03-23T05:40:53;6.50;99.90
5870;DHT22;2961;47.702;9.410;2024-03-23T05:43:20;6.70;99.90
5870;DHT22;2961;47.702;9.410;2024-03-23T05:45:52;6.90;99.90
5870;DHT22;2961;47.702;9.410;2024-03-23T05:48:19;6.90;99.90
5870;DHT22;2961;47.702;9.410;2024-03-23T05:50:46;6.90;99.90
5870;DHT22;2961;47.702;9.410;2024-03-23T05:53:14;6.90;99.90
5870;DHT22;2961;47.702;9.410;2024-03-23T05:55:40;7.00;99.90
5870;DHT22;2961;47.702;9.410;2024-03-23T05:58:07;7.10;99.90
5870;DHT22;2961;47.702;9.410;2024-03-23T06:00:33;7.20;99.90
5870;DHT22;2961;47.702;9.410;2024-03-23T06:03:00;7.30;99.90
5870;DHT22;2961;47.702;9.410;2024-03-23T06:05:26;7.30;99.90
5870;DHT22;2961;47.702;9.410;2024-03-23T06:07:54;7.50;99.90
5870;DHT22;2961;47.702;9.410;2024-03-23T06:10:20;7.90;99.90
5870;DHT22;2961;47.702;9.410;2024-03-23T06:12:47;8.20;99.90
5870;DHT22;2961;47.702;9.410;2024-03-23T06:15:14;8.30;99.90
5870;DHT22;2961;47.702;9.410;2024-03-23T06:17:41;8.50;99.90
5870;DHT22;2961;47.702;9.410;2024-03-23T06:20:08;8.50;99.90
5870;DHT22;2961;47.702;9.410;2024-03-23T06:22:35;8.60;99.90
5870;DHT22;2961;47.702;9.410;2024-03-23T06:25:03;8.60;99.90
5870;DHT22;2961;47.702;9.410;2024-03-23T06:27:30;8.70;99.90
5870;DHT22;2961;47.702;9.410;2024-03-23T06:29:57;8.90;99.90
5870;DHT22;2961;47.702;9.410;2024-03-23T06:32:24;9.00;99.90
5870;DHT22;2961;47.702;9.410;2024-03-23T06:34:50;9.00;99.90
5870;DHT22;2961;47.702;9.410;2024-03-23T06:37:16;9.10;99.90
5870;DHT22;2961;47.702;9.410;2024-03-23T06:39:42;9.10;99.90
5870;DHT22;2961;47.702;9.410;2024-03-23T06:42:10;9.10;99.90
5870;DHT22;2961;47.702;9.410;2024-03-23T06:44:36;9.20;99.90
5870;DHT22;2961;47.702;9.410;2024-03-23T06:47:03;9.20;99.90
5870;DHT22;2961;47.702;9.410;2024-03-23T06:49:29;9.20;99.90
5870;DHT22;2961;47.702;9.410;2024-03-23T06:51:56;9.30;99.90
5870;DHT22;2961;47.702;9.410;2024-03-23T06:54:22;9.20;99.90
5870;DHT22;2961;47.702;9.410;2024-03-23T06:56:49;9.20;99.90
5870;DHT22;2961;47.702;9.410;2024-03-23T06:59:16;9.30;99.90
5870;DHT22;2961;47.702;9.410;2024-03-23T07:01:43;9.30;99.90
5870;DHT22;2961;47.702;9.410;2024-03-23T07:04:09;9.20;99.90
5870;DHT22;2961;47.702;9.410;2024-03-23T07:06:42;9.30;99.90
5870;DHT22;2961;47.702;9.410;2024-03-23T07:09:08;9.20;99.90
5870;DHT22;2961;47.702;9.410;2024-03-23T07:11:35;9.20;99.90
5870;DHT22;2961;47.702;9.410;2024-03-23T07:14:01;9.10;99.90
5870;DHT22;2961;47.702;9.410;2024-03-23T07:16:29;9.10;99.90
5870;DHT22;2961;47.702;9.410;2024-03-23T07:18:55;9.10;99.90
5870;DHT22;2961;47.702;9.410;2024-03-23T07:21:22;9.10;99.90
5870;DHT22;2961;47.702;9.410;2024-03-23T07:23:48;9.10;99.90
5870;DHT22;2961;47.702;9.410;2024-03-23T07:26:14;9.20;99.90
5870;DHT22;2961;47.702;9.410;2024-03-23T07:28:40;9.20;99.90
5870;DHT22;2961;47.702;9.410;2024-03-23T07:31:10;9.20;99.90
5870;DHT22;2961;47.702;9.410;2024-03-23T07:33:41;9.20;99.90
5870;DHT22;2961;47.702;9.410;2024-03-23T07:36:08;9.20;99.90
5870;DHT22;2961;47.702;9.410;2024-03-23T07:38:34;9.30;99.90
5870;DHT22;2961;47.702;9.410;2024-03-23T07:41:05;9.40;99.90
5870;DHT22;2961;47.702;9.410;2024-03-23T07:43:31;9.60;99.90
5870;DHT22;2961;47.702;9.410;2024-03-23T07:45:58;9.60;99.90
5870;DHT22;2961;47.702;9.410;2024-03-23T07:48:24;9.70;99.90
5870;DHT22;2961;47.702;9.410;2024-03-23T07:51:03;9.70;99.90
5870;DHT22;2961;47.702;9.410;2024-03-23T07:53:30;9.70;99.90
5870;DHT22;2961;47.702;9.410;2024-03-23T07:55:58;9.70;99.90
5870;DHT22;2961;47.702;9.410;2024-03-23T07:58:24;9.70;99.90
5870;DHT22;2961;47.702;9.410;2024-03-23T08:00:52;9.70;99.90
5870;DHT22;2961;47.702;9.410;2024-03-23T08:03:18;9.70;99.90
5870;DHT22;2961;47.702;9.410;2024-03-23T08:05:45;9.70;99.90
5870;DHT22;2961;47.702;9.410;2024-03-23T08:08:13;9.80;99.90
5870;DHT22;2961;47.702;9.410;2024-03-23T08:10:48;9.90;99.90
5870;DHT22;2961;47.702;9.410;2024-03-23T08:13:13;9.90;99.90
5870;DHT22;2961;47.702;9.410;2024-03-23T08:15:40;9.90;99.90
5870;DHT22;2961;47.702;9.410;2024-03-23T08:18:06;9.90;99.90
5870;DHT22;2961;47.702;9.410;2024-03-23T08:20:33;9.90;99.90
5870;DHT22;2961;47.702;9.410;2024-03-23T08:22:59;10.00;99.90
5870;DHT22;2961;47.702;9.410;2024-03-23T08:25:30;9.90;99.90
5870;DHT22;2961;47.702;9.410;2024-03-23T08:27:56;9.90;99.90
5870;DHT22;2961;47.702;9.410;2024-03-23T08:30:23;9.90;99.90
5870;DHT22;2961;47.702;9.410;2024-03-23T08:32:49;9.90;99.90
5870;DHT22;2961;47.702;9.410;2024-03-23T08:35:15;9.70;99.90
5870;DHT22;2961;47.702;9.410;2024-03-23T08:37:41;9.50;99.90
5870;DHT22;2961;47.702;9.410;2024-03-23T08:40:09;9.30;99.90
5870;DHT22;2961;47.702;9.410;2024-03-23T08:42:36;9.00;99.90
5870;DHT22;2961;47.702;9.410;2024-03-23T08:45:04;8.80;99.90
5870;DHT22;2961;47.702;9.410;2024-03-23T08:47:30;8.70;99.90
5870;DHT22;2961;47.702;9.410;2024-03-23T08:49:56;8.60;99.90
5870;DHT22;2961;47.702;9.410;2024-03-23T08:52:23;8.50;99.90
5870;DHT22;2961;47.702;9.410;2024-03-23T08:54:52;8.50;99.90
5870;DHT22;2961;47.702;9.410;2024-03-23T08:57:18;8.50;99.90
5870;DHT22;2961;47.702;9.410;2024-03-23T08:59:46;8.40;99.90
5870;DHT22;2961;47.702;9.410;2024-03-23T09:02:12;8.40;99.90
5870;DHT22;2961;47.702;9.410;2024-03-23T09:04:39;8.40;99.90
5870;DHT22;2961;47.702;9.410;2024-03-23T09:07:05;8.30;99.90
5870;DHT22;2961;47.702;9.410;2024-03-23T09:09:31;8.30;99.90
5870;DHT22;2961;47.702;9.410;2024-03-23T09:11:57;8.30;99.90
5870;DHT22;2961;47.702;9.410;2024-03-23T09:14:24;8.40;99.90
5870;DHT22;2961;47.702;9.410;2024-03-23T09:16:51;8.40;99.90
5870;DHT22;2961;47.702;9.410;2024-03-23T09:19:18;8.50;99.90
5870;DHT22;2961;47.702;9.410;2024-03-23T09:21:44;8.60;99.90
5870;DHT22;2961;47.702;9.410;2024-03-23T09:24:11;8.60;99.90
5870;DHT22;2961;47.702;9.410;2024-03-23T09:26:37;8.50;99.90
5870;DHT22;2961;47.702;9.410;2024-03-23T09:29:03;8.50;99.90
5870;DHT22;2961;47.702;9.410;2024-03-23T09:31:29;8.50;99.90
5870;DHT22;2961;47.702;9.410;2024-03-23T09:33:58;8.60;99.90
5870;DHT22;2961;47.702;9.410;2024-03-23T09:36:24;8.60;99.90
5870;DHT22;2961;47.702;9.410;2024-03-23T09:38:51;8.60;99.90
5870;DHT22;2961;47.702;9.410;2024-03-23T09:41:17;8.60;99.90
5870;DHT22;2961;47.702;9.410;2024-03-23T09:43:44;8.60;99.90
5870;DHT22;2961;47.702;9.410;2024-03-23T09:46:11;8.60;99.90
5870;DHT22;2961;47.702;9.410;2024-03-23T09:48:38;8.60;99.90
5870;DHT22;2961;47.702;9.410;2024-03-23T09:51:05;8.50;99.90
5870;DHT22;2961;47.702;9.410;2024-03-23T09:53:33;8.50;99.90
5870;DHT22;2961;47.702;9.410;2024-03-23T09:55:59;8.40;99.90
5870;DHT22;2961;47.702;9.410;2024-03-23T09:58:26;8.40;99.90
5870;DHT22;2961;47.702;9.410;2024-03-23T10:00:52;8.30;99.90
5870;DHT22;2961;47.702;9.410;2024-03-23T10:03:19;8.30;99.90
5870;DHT22;2961;47.702;9.410;2024-03-23T10:05:45;8.30;99.90
5870;DHT22;2961;47.702;9.410;2024-03-23T10:08:19;8.30;99.90
5870;DHT22;2961;47.702;9.410;2024-03-23T10:10:45;8.40;99.90
5870;DHT22;2961;47.702;9.410;2024-03-23T10:13:24;8.50;99.90
5870;DHT22;2961;47.702;9.410;2024-03-23T10:15:55;8.60;99.90
5870;DHT22;2961;47.702;9.410;2024-03-23T10:18:22;8.80;99.90
5870;DHT22;2961;47.702;9.410;2024-03-23T10:20:51;8.90;99.90
5870;DHT22;2961;47.702;9.410;2024-03-23T10:23:19;9.00;99.90
5870;DHT22;2961;47.702;9.410;2024-03-23T10:25:45;9.20;99.90
5870;DHT22;2961;47.702;9.410;2024-03-23T10:28:12;9.30;99.90
5870;DHT22;2961;47.702;9.410;2024-03-23T10:30:38;9.30;99.90
5870;DHT22;2961;47.702;9.410;2024-03-23T10:33:09;9.30;99.90
5870;DHT22;2961;47.702;9.410;2024-03-23T10:35:36;9.50;99.90
5870;DHT22;2961;47.702;9.410;2024-03-23T10:41:04;9.70;99.90
5870;DHT22;2961;47.702;9.410;2024-03-23T10:43:32;9.70;99.90
5870;DHT22;2961;47.702;9.410;2024-03-23T10:45:58;9.80;99.90
5870;DHT22;2961;47.702;9.410;2024-03-23T10:48:25;9.80;99.90
5870;DHT22;2961;47.702;9.410;2024-03-23T10:50:51;10.00;99.90
5870;DHT22;2961;47.702;9.410;2024-03-23T10:53:21;10.10;99.90
5870;DHT22;2961;47.702;9.410;2024-03-23T10:55:48;10.30;99.90
5870;DHT22;2961;47.702;9.410;2024-03-23T10:58:18;10.40;99.90
5870;DHT22;2961;47.702;9.410;2024-03-23T11:00:46;10.50;99.90
5870;DHT22;2961;47.702;9.410;2024-03-23T11:03:31;10.60;99.90
5870;DHT22;2961;47.702;9.410;2024-03-23T11:05:57;10.70;99.90
5870;DHT22;2961;47.702;9.410;2024-03-23T11:08:34;10.70;99.90
5870;DHT22;2961;47.702;9.410;2024-03-23T11:11:21;10.90;99.90
5870;DHT22;2961;47.702;9.410;2024-03-23T11:13:51;11.00;99.90
5870;DHT22;2961;47.702;9.410;2024-03-23T11:16:22;11.00;99.90
5870;DHT22;2961;47.702;9.410;2024-03-23T11:18:49;10.90;99.90
5870;DHT22;2961;47.702;9.410;2024-03-23T11:24:16;10.90;99.90
5870;DHT22;2961;47.702;9.410;2024-03-23T11:26:42;11.00;99.90
5870;DHT22;2961;47.702;9.410;2024-03-23T11:29:10;11.10;99.90
5870;DHT22;2961;47.702;9.410;2024-03-23T11:31:37;11.20;99.90
5870;DHT22;2961;47.702;9.410;2024-03-23T11:34:04;11.20;99.90
5870;DHT22;2961;47.702;9.410;2024-03-23T11:36:30;11.20;99.90
5870;DHT22;2961;47.702;9.410;2024-03-23T11:38:57;11.20;99.90
5870;DHT22;2961;47.702;9.410;2024-03-23T11:41:23;11.20;99.90
5870;DHT22;2961;47.702;9.410;2024-03-23T11:43:50;11.30;99.90
5870;DHT22;2961;47.702;9.410;2024-03-23T11:46:23;11.50;99.90
5870;DHT22;2961;47.702;9.410;2024-03-23T11:48:50;11.70;99.90
5870;DHT22;2961;47.702;9.410;2024-03-23T11:51:17;11.70;99.90
5870;DHT22;2961;47.702;9.410;2024-03-23T11:53:44;11.70;99.90
5870;DHT22;2961;47.702;9.410;2024-03-23T11:56:09;11.70;99.90
5870;DHT22;2961;47.702;9.410;2024-03-23T11:58:36;11.90;99.90
5870;DHT22;2961;47.702;9.410;2024-03-23T12:01:03;12.00;99.90
5870;DHT22;2961;47.702;9.410;2024-03-23T12:03:32;12.30;99.90
5870;DHT22;2961;47.702;9.410;2024-03-23T12:05:59;12.50;99.90
5870;DHT22;2961;47.702;9.410;2024-03-23T12:08:30;12.30;99.90
5870;DHT22;2961;47.702;9.410;2024-03-23T12:11:05;12.30;99.90
5870;DHT22;2961;47.702;9.410;2024-03-23T12:13:32;12.20;99.90
5870;DHT22;2961;47.702;9.410;2024-03-23T12:16:10;12.10;99.90
5870;DHT22;2961;47.702;9.410;2024-03-23T12:18:40;12.00;99.90
5870;DHT22;2961;47.702;9.410;2024-03-23T12:21:06;12.00;99.90
5870;DHT22;2961;47.702;9.410;2024-03-23T12:23:34;12.00;99.90
5870;DHT22;2961;47.702;9.410;2024-03-23T12:26:00;11.70;99.70
5870;DHT22;2961;47.702;9.410;2024-03-23T12:28:27;11.60;99.90
5870;DHT22;2961;47.702;9.410;2024-03-23T12:30:54;11.60;99.90
5870;DHT22;2961;47.702;9.410;2024-03-23T12:33:21;11.60;99.90
5870;DHT22;2961;47.702;9.410;2024-03-23T12:35:48;11.50;99.90
5870;DHT22;2961;47.702;9.410;2024-03-23T12:38:15;11.40;99.90
5870;DHT22;2961;47.702;9.410;2024-03-23T12:40:41;11.30;99.90
5870;DHT22;2961;47.702;9.410;2024-03-23T12:43:07;11.30;99.90
5870;DHT22;2961;47.702;9.410;2024-03-23T12:45:33;11.40;99.90
5870;DHT22;2961;47.702;9.410;2024-03-23T12:48:00;11.50;99.90
5870;DHT22;2961;47.702;9.410;2024-03-23T12:50:26;11.50;99.40
5870;DHT22;2961;47.702;9.410;2024-03-23T12:52:54;11.60;99.90
5870;DHT22;2961;47.702;9.410;2024-03-23T12:55:20;11.70;98.60
5870;DHT22;2961;47.702;9.410;2024-03-23T12:57:47;11.60;98.20
5870;DHT22;2961;47.702;9.410;2024-03-23T13:00:14;11.50;98.10
5870;DHT22;2961;47.702;9.410;2024-03-23T13:02:42;11.30;98.70
5870;DHT22;2961;47.702;9.410;2024-03-23T13:05:08;11.20;99.90
5870;DHT22;2961;47.702;9.410;2024-03-23T13:07:35;11.10;99.90
5870;DHT22;2961;47.702;9.410;2024-03-23T13:10:05;11.10;99.90
5870;DHT22;2961;47.702;9.410;2024-03-23T13:12:32;10.70;99.90
5870;DHT22;2961;47.702;9.410;2024-03-23T13:14:58;10.40;99.90
5870;DHT22;2961;47.702;9.410;2024-03-23T13:17:25;10.00;99.90
5870;DHT22;2961;47.702;9.410;2024-03-23T13:19:52;9.70;99.90
5870;DHT22;2961;47.702;9.410;2024-03-23T13:22:19;9.60;99.90
5870;DHT22;2961;47.702;9.410;2024-03-23T13:24:45;9.60;99.90
5870;DHT22;2961;47.702;9.410;2024-03-23T13:27:13;9.60;99.90
5870;DHT22;2961;47.702;9.410;2024-03-23T13:29:39;9.60;99.90
5870;DHT22;2961;47.702;9.410;2024-03-23T13:32:06;9.60;99.90
5870;DHT22;2961;47.702;9.410;2024-03-23T13:34:32;9.70;99.90
5870;DHT22;2961;47.702;9.410;2024-03-23T13:37:00;9.80;99.90
5870;DHT22;2961;47.702;9.410;2024-03-23T13:39:26;9.90;99.90
5870;DHT22;2961;47.702;9.410;2024-03-23T13:41:54;9.90;99.90
5870;DHT22;2961;47.702;9.410;2024-03-23T13:44:22;9.80;99.90
5870;DHT22;2961;47.702;9.410;2024-03-23T13:46:49;9.90;99.90
5870;DHT22;2961;47.702;9.410;2024-03-23T13:49:24;9.80;99.90
5870;DHT22;2961;47.702;9.410;2024-03-23T13:51:52;9.80;99.90
5870;DHT22;2961;47.702;9.410;2024-03-23T13:54:18;9.90;99.90
5870;DHT22;2961;47.702;9.410;2024-03-23T13:56:45;9.90;99.90
5870;DHT22;2961;47.702;9.410;2024-03-23T13:59:10;9.90;99.90
5870;DHT22;2961;47.702;9.410;2024-03-23T14:01:38;9.90;99.90
5870;DHT22;2961;47.702;9.410;2024-03-23T14:04:04;10.00;99.90
5870;DHT22;2961;47.702;9.410;2024-03-23T14:06:31;9.90;99.90
5870;DHT22;2961;47.702;9.410;2024-03-23T14:08:58;9.90;99.90
5870;DHT22;2961;47.702;9.410;2024-03-23T14:11:25;9.90;99.90
5870;DHT22;2961;47.702;9.410;2024-03-23T14:13:52;9.90;99.90
5870;DHT22;2961;47.702;9.410;2024-03-23T14:16:20;9.80;99.90
5870;DHT22;2961;47.702;9.410;2024-03-23T14:18:47;9.80;99.90
5870;DHT22;2961;47.702;9.410;2024-03-23T14:21:14;9.80;99.90
5870;DHT22;2961;47.702;9.410;2024-03-23T14:23:40;9.70;99.90
5870;DHT22;2961;47.702;9.410;2024-03-23T14:26:07;9.80;99.90
5870;DHT22;2961;47.702;9.410;2024-03-23T14:28:33;9.90;99.90
5870;DHT22;2961;47.702;9.410;2024-03-23T14:31:00;9.90;99.90
5870;DHT22;2961;47.702;9.410;2024-03-23T14:33:26;9.90;99.90
5870;DHT22;2961;47.702;9.410;2024-03-23T14:35:55;9.90;99.90
5870;DHT22;2961;47.702;9.410;2024-03-23T14:38:21;9.70;99.90
5870;DHT22;2961;47.702;9.410;2024-03-23T14:40:48;9.70;99.90
5870;DHT22;2961;47.702;9.410;2024-03-23T14:43:14;9.90;99.90
5870;DHT22;2961;47.702;9.410;2024-03-23T14:48:29;10.30;99.80
5870;DHT22;2961;47.702;9.410;2024-03-23T14:50:58;10.60;98.20
5870;DHT22;2961;47.702;9.410;2024-03-23T14:53:25;10.70;97.40
5870;DHT22;2961;47.702;9.410;2024-03-23T14:55:54;10.80;99.50
5870;DHT22;2961;47.702;9.410;2024-03-23T14:58:20;10.80;98.60
5870;DHT22;2961;47.702;9.410;2024-03-23T15:00:48;10.60;98.10
5870;DHT22;2961;47.702;9.410;2024-03-23T15:03:14;10.40;99.70
5870;DHT22;2961;47.702;9.410;2024-03-23T15:05:41;10.30;99.90
5870;DHT22;2961;47.702;9.410;2024-03-23T15:08:08;10.30;99.90
5870;DHT22;2961;47.702;9.410;2024-03-23T15:10:35;10.30;99.00
5870;DHT22;2961;47.702;9.410;2024-03-23T15:13:01;10.30;99.90
5870;DHT22;2961;47.702;9.410;2024-03-23T15:15:28;10.20;99.80
5870;DHT22;2961;47.702;9.410;2024-03-23T15:17:54;10.10;99.60
5870;DHT22;2961;47.702;9.410;2024-03-23T15:20:21;10.10;99.90
5870;DHT22;2961;47.702;9.410;2024-03-23T15:22:47;10.00;99.90
5870;DHT22;2961;47.702;9.410;2024-03-23T15:25:15;10.00;99.90
5870;DHT22;2961;47.702;9.410;2024-03-23T15:27:42;9.90;99.90
5870;DHT22;2961;47.702;9.410;2024-03-23T15:30:09;9.90;99.90
5870;DHT22;2961;47.702;9.410;2024-03-23T15:32:35;9.80;99.90
5870;DHT22;2961;47.702;9.410;2024-03-23T15:35:05;9.70;99.50
5870;DHT22;2961;47.702;9.410;2024-03-23T15:37:32;9.50;99.90
5870;DHT22;2961;47.702;9.410;2024-03-23T15:40:00;9.40;99.30
5870;DHT22;2961;47.702;9.410;2024-03-23T15:42:27;9.40;99.90
5870;DHT22;2961;47.702;9.410;2024-03-23T15:44:54;9.40;99.90
5870;DHT22;2961;47.702;9.410;2024-03-23T15:47:19;9.40;99.20
5870;DHT22;2961;47.702;9.410;2024-03-23T15:49:46;9.50;99.90
5870;DHT22;2961;47.702;9.410;2024-03-23T15:52:12;9.50;99.90
5870;DHT22;2961;47.702;9.410;2024-03-23T15:54:39;9.50;99.90
5870;DHT22;2961;47.702;9.410;2024-03-23T15:57:05;9.50;99.90
5870;DHT22;2961;47.702;9.410;2024-03-23T15:59:33;9.50;99.90
5870;DHT22;2961;47.702;9.410;2024-03-23T16:02:00;9.50;99.90
5870;DHT22;2961;47.702;9.410;2024-03-23T16:04:28;9.40;99.90
5870;DHT22;2961;47.702;9.410;2024-03-23T16:06:54;9.30;99.90
5870;DHT22;2961;47.702;9.410;2024-03-23T16:09:20;9.30;99.90
5870;DHT22;2961;47.702;9.410;2024-03-23T16:11:47;9.20;99.90
5870;DHT22;2961;47.702;9.410;2024-03-23T16:14:14;9.20;99.90
5870;DHT22;2961;47.702;9.410;2024-03-23T16:16:41;9.20;99.90
5870;DHT22;2961;47.702;9.410;2024-03-23T16:19:08;9.30;99.30
5870;DHT22;2961;47.702;9.410;2024-03-23T16:21:34;9.30;98.40
5870;DHT22;2961;47.702;9.410;2024-03-23T16:24:01;9.30;99.90
5870;DHT22;2961;47.702;9.410;2024-03-23T16:26:26;9.40;97.80
5870;DHT22;2961;47.702;9.410;2024-03-23T16:28:53;9.30;99.20
5870;DHT22;2961;47.702;9.410;2024-03-23T16:31:20;9.20;98.80
5870;DHT22;2961;47.702;9.410;2024-03-23T16:33:47;9.10;99.30
5870;DHT22;2961;47.702;9.410;2024-03-23T16:36:14;9.10;99.90
5870;DHT22;2961;47.702;9.410;2024-03-23T16:38:42;9.10;99.80
5870;DHT22;2961;47.702;9.410;2024-03-23T16:41:10;9.10;98.80
5870;DHT22;2961;47.702;9.410;2024-03-23T16:43:38;9.10;99.90
5870;DHT22;2961;47.702;9.410;2024-03-23T16:46:07;9.00;99.80
5870;DHT22;2961;47.702;9.410;2024-03-23T16:48:36;9.00;99.90
5870;DHT22;2961;47.702;9.410;2024-03-23T16:51:05;8.90;99.50
5870;DHT22;2961;47.702;9.410;2024-03-23T16:53:33;8.90;98.90
5870;DHT22;2961;47.702;9.410;2024-03-23T16:56:01;8.80;97.60
5870;DHT22;2961;47.702;9.410;2024-03-23T16:58:27;8.70;99.30
5870;DHT22;2961;47.702;9.410;2024-03-23T17:00:55;8.60;98.10
5870;DHT22;2961;47.702;9.410;2024-03-23T17:03:22;8.50;99.10
5870;DHT22;2961;47.702;9.410;2024-03-23T17:05:49;8.40;99.90
5870;DHT22;2961;47.702;9.410;2024-03-23T17:08:17;8.40;99.90
5870;DHT22;2961;47.702;9.410;2024-03-23T17:10:44;8.30;99.90
5870;DHT22;2961;47.702;9.410;2024-03-23T17:13:10;8.20;99.90
5870;DHT22;2961;47.702;9.410;2024-03-23T17:15:42;8.10;99.90